UAL731 KIAH-KORD
Flight info
| Callsign | UAL731 |
|---|---|
| Flight time | 1h 37m |
| Altitude | 35000 |
| Route | INDIE8 TPAKK LIT J180 FTZ TRTLL6 |
| Aircraft | B739/M-SDE2E3FGHIRWXY/LB1 |
Departure
| Time | 2026-05-05 21:31 |
|---|---|
| Airport | George Bush Intercontinental Airport (KIAH) |
Arrival
| Time | 2026-05-05 23:08 |
|---|---|
| Airport | Chicago O'Hare International Airport (KORD) |
| Time | Latitude | Longitude | Altitude | Speed | Heading |
|---|---|---|---|---|---|
| 2026-05-05 20:58 | 29.98532 | -95.34058 | 104 ft | 0 kts | 0° |
| 2026-05-05 21:19 | 29.98526 | -95.34058 | 106 ft | 2 kts | 359° |
| 2026-05-05 21:19 | 29.98510 | -95.34057 | 105 ft | 2 kts | 356° |
| 2026-05-05 21:19 | 29.98494 | -95.34055 | 105 ft | 2 kts | 352° |
| 2026-05-05 21:20 | 29.98477 | -95.34052 | 105 ft | 2 kts | 348° |
| 2026-05-05 21:20 | 29.98461 | -95.34048 | 105 ft | 2 kts | 342° |
| 2026-05-05 21:20 | 29.98446 | -95.34041 | 105 ft | 2 kts | 335° |
| 2026-05-05 21:20 | 29.98431 | -95.34032 | 105 ft | 2 kts | 326° |
| 2026-05-05 21:21 | 29.98418 | -95.34021 | 105 ft | 2 kts | 314° |
| 2026-05-05 21:21 | 29.98408 | -95.34006 | 106 ft | 2 kts | 297° |
| 2026-05-05 21:21 | 29.98403 | -95.33988 | 105 ft | 2 kts | 272° |
| 2026-05-05 21:21 | 29.98404 | -95.33973 | 106 ft | 1 kts | 216° |
| 2026-05-05 21:22 | 29.98405 | -95.33972 | 106 ft | 0 kts | 198° |
| 2026-05-05 21:23 | 29.98393 | -95.33976 | 106 ft | 2 kts | 198° |
| 2026-05-05 21:24 | 29.98364 | -95.33987 | 106 ft | 7 kts | 197° |
| 2026-05-05 21:24 | 29.98316 | -95.34028 | 106 ft | 10 kts | 229° |
| 2026-05-05 21:24 | 29.98298 | -95.34102 | 106 ft | 10 kts | 268° |
| 2026-05-05 21:24 | 29.98302 | -95.34178 | 106 ft | 9 kts | 270° |
| 2026-05-05 21:25 | 29.98302 | -95.34252 | 106 ft | 10 kts | 270° |
| 2026-05-05 21:25 | 29.98302 | -95.34337 | 106 ft | 12 kts | 270° |
| 2026-05-05 21:25 | 29.98306 | -95.34437 | 106 ft | 13 kts | 279° |
| 2026-05-05 21:25 | 29.98326 | -95.34547 | 106 ft | 15 kts | 272° |
| 2026-05-05 21:26 | 29.98325 | -95.34671 | 106 ft | 16 kts | 270° |
| 2026-05-05 21:26 | 29.98324 | -95.34806 | 106 ft | 17 kts | 269° |
| 2026-05-05 21:26 | 29.98323 | -95.34946 | 106 ft | 17 kts | 269° |
| 2026-05-05 21:26 | 29.98320 | -95.35082 | 106 ft | 17 kts | 269° |
| 2026-05-05 21:27 | 29.98370 | -95.35193 | 106 ft | 17 kts | 326° |
| 2026-05-05 21:27 | 29.98477 | -95.35261 | 106 ft | 18 kts | 332° |
| 2026-05-05 21:27 | 29.98595 | -95.35335 | 106 ft | 20 kts | 333° |
| 2026-05-05 21:27 | 29.98723 | -95.35412 | 106 ft | 22 kts | 332° |
| 2026-05-05 21:28 | 29.98837 | -95.35483 | 106 ft | 11 kts | 332° |
| 2026-05-05 21:28 | 29.98883 | -95.35548 | 106 ft | 12 kts | 269° |
| 2026-05-05 21:28 | 29.98845 | -95.35634 | 106 ft | 13 kts | 241° |
| 2026-05-05 21:28 | 29.98805 | -95.35726 | 107 ft | 13 kts | 241° |
| 2026-05-05 21:29 | 29.98761 | -95.35814 | 108 ft | 12 kts | 240° |
| 2026-05-05 21:29 | 29.98714 | -95.35906 | 107 ft | 14 kts | 238° |
| 2026-05-05 21:29 | 29.98668 | -95.36001 | 107 ft | 11 kts | 241° |
| 2026-05-05 21:29 | 29.98620 | -95.36039 | 108 ft | 9 kts | 162° |
| 2026-05-05 21:30 | 29.98604 | -95.36030 | 108 ft | 7 kts | 154° |
| 2026-05-05 21:30 | 29.98307 | -95.35849 | 106 ft | 89 kts | 152° |
| 2026-05-05 21:30 | 29.97566 | -95.35392 | 106 ft | 153 kts | 153° |
| 2026-05-05 21:30 | 29.96516 | -95.34770 | 584 ft | 177 kts | 153° |
| 2026-05-05 21:31 | 29.95448 | -95.34070 | 1513 ft | 175 kts | 154° |
| 2026-05-05 21:31 | 29.94410 | -95.33300 | 2366 ft | 187 kts | 151° |
| 2026-05-05 21:31 | 29.93261 | -95.32403 | 2565 ft | 217 kts | 144° |
| 2026-05-05 21:31 | 29.92640 | -95.30721 | 2780 ft | 252 kts | 91° |
| 2026-05-05 21:32 | 29.92970 | -95.28685 | 3244 ft | 272 kts | 73° |
| 2026-05-05 21:32 | 29.94011 | -95.26798 | 3741 ft | 292 kts | 43° |
| 2026-05-05 21:32 | 29.95804 | -95.25752 | 4511 ft | 289 kts | 7° |
| 2026-05-05 21:32 | 29.97796 | -95.25609 | 5353 ft | 289 kts | 358° |
| 2026-05-05 21:33 | 29.99824 | -95.25571 | 6032 ft | 294 kts | 358° |
| 2026-05-05 21:33 | 30.01883 | -95.25488 | 6724 ft | 297 kts | 360° |
| 2026-05-05 21:33 | 30.03946 | -95.25348 | 7452 ft | 299 kts | 1° |
| 2026-05-05 21:33 | 30.06025 | -95.25157 | 8182 ft | 300 kts | 2° |
| 2026-05-05 21:34 | 30.08126 | -95.24932 | 8816 ft | 305 kts | 3° |
| 2026-05-05 21:34 | 30.10237 | -95.24684 | 9587 ft | 305 kts | 2° |
| 2026-05-05 21:34 | 30.12366 | -95.24422 | 10148 ft | 313 kts | 2° |
| 2026-05-05 21:34 | 30.14604 | -95.24142 | 10322 ft | 334 kts | 2° |
| 2026-05-05 21:35 | 30.16987 | -95.23839 | 10475 ft | 354 kts | 3° |
| 2026-05-05 21:35 | 30.19493 | -95.23515 | 10742 ft | 369 kts | 3° |
| 2026-05-05 21:35 | 30.22063 | -95.23178 | 11253 ft | 374 kts | 3° |
| 2026-05-05 21:35 | 30.24653 | -95.22838 | 11919 ft | 375 kts | 2° |
| 2026-05-05 21:36 | 30.27256 | -95.22498 | 12539 ft | 378 kts | 2° |
| 2026-05-05 21:36 | 30.29867 | -95.22033 | 13139 ft | 384 kts | 9° |
| 2026-05-05 21:36 | 30.32442 | -95.21103 | 13685 ft | 390 kts | 14° |
| 2026-05-05 21:36 | 30.35013 | -95.20045 | 14166 ft | 394 kts | 15° |
| 2026-05-05 21:37 | 30.37608 | -95.18979 | 14673 ft | 397 kts | 14° |
| 2026-05-05 21:37 | 30.40227 | -95.17936 | 15148 ft | 400 kts | 13° |
| 2026-05-05 21:37 | 30.42872 | -95.16902 | 15643 ft | 402 kts | 13° |
| 2026-05-05 21:37 | 30.45517 | -95.15806 | 16138 ft | 408 kts | 18° |
| 2026-05-05 21:38 | 30.48083 | -95.14329 | 16607 ft | 415 kts | 23° |
| 2026-05-05 21:38 | 30.50620 | -95.12697 | 17084 ft | 419 kts | 24° |
| 2026-05-05 21:38 | 30.53174 | -95.11045 | 17556 ft | 422 kts | 24° |
| 2026-05-05 21:38 | 30.55761 | -95.09412 | 18012 ft | 425 kts | 23° |
| 2026-05-05 21:39 | 30.58375 | -95.07788 | 18428 ft | 427 kts | 22° |
| 2026-05-05 21:39 | 30.61004 | -95.06151 | 18845 ft | 430 kts | 22° |
| 2026-05-05 21:39 | 30.63634 | -95.04475 | 19250 ft | 433 kts | 23° |
| 2026-05-05 21:39 | 30.66283 | -95.02768 | 19654 ft | 436 kts | 22° |
| 2026-05-05 21:40 | 30.68941 | -95.01051 | 20057 ft | 439 kts | 22° |
| 2026-05-05 21:40 | 30.71618 | -94.99320 | 20467 ft | 441 kts | 22° |
| 2026-05-05 21:40 | 30.74271 | -94.97605 | 20832 ft | 444 kts | 22° |
| 2026-05-05 21:40 | 30.76979 | -94.95858 | 21208 ft | 446 kts | 22° |
| 2026-05-05 21:41 | 30.79702 | -94.94101 | 21583 ft | 448 kts | 21° |
| 2026-05-05 21:41 | 30.82434 | -94.92337 | 22014 ft | 449 kts | 21° |
| 2026-05-05 21:41 | 30.85174 | -94.90567 | 22383 ft | 452 kts | 21° |
| 2026-05-05 21:41 | 30.87932 | -94.88786 | 22745 ft | 455 kts | 21° |
| 2026-05-05 21:42 | 30.90711 | -94.86991 | 23052 ft | 459 kts | 21° |
| 2026-05-05 21:42 | 30.93504 | -94.85184 | 23398 ft | 461 kts | 20° |
| 2026-05-05 21:42 | 30.96315 | -94.83364 | 23692 ft | 463 kts | 20° |
| 2026-05-05 21:42 | 30.99137 | -94.81535 | 23972 ft | 465 kts | 20° |
| 2026-05-05 21:43 | 31.01973 | -94.79695 | 24253 ft | 468 kts | 20° |
| 2026-05-05 21:43 | 31.04822 | -94.77846 | 24528 ft | 470 kts | 20° |
| 2026-05-05 21:43 | 31.07678 | -94.75991 | 24801 ft | 472 kts | 20° |
| 2026-05-05 21:43 | 31.10558 | -94.74119 | 25081 ft | 474 kts | 20° |
| 2026-05-05 21:44 | 31.13447 | -94.72241 | 25345 ft | 476 kts | 20° |
| 2026-05-05 21:44 | 31.16351 | -94.70352 | 25632 ft | 479 kts | 20° |
| 2026-05-05 21:44 | 31.19270 | -94.68453 | 25872 ft | 482 kts | 20° |
| 2026-05-05 21:44 | 31.22204 | -94.66544 | 26130 ft | 484 kts | 20° |
| 2026-05-05 21:45 | 31.25153 | -94.64622 | 26400 ft | 486 kts | 20° |
| 2026-05-05 21:45 | 31.28112 | -94.62692 | 26655 ft | 488 kts | 20° |
| 2026-05-05 21:45 | 31.31085 | -94.60750 | 26905 ft | 491 kts | 20° |
| 2026-05-05 21:45 | 31.34071 | -94.58799 | 27145 ft | 493 kts | 20° |
| 2026-05-05 21:46 | 31.37070 | -94.56837 | 27385 ft | 495 kts | 20° |
| 2026-05-05 21:46 | 31.40077 | -94.54868 | 27671 ft | 495 kts | 20° |
| 2026-05-05 21:46 | 31.43086 | -94.52895 | 27943 ft | 497 kts | 20° |
| 2026-05-05 21:46 | 31.46111 | -94.50913 | 28188 ft | 499 kts | 20° |
| 2026-05-05 21:47 | 31.49149 | -94.48920 | 28381 ft | 503 kts | 20° |
| 2026-05-05 21:47 | 31.52186 | -94.46869 | 28595 ft | 506 kts | 21° |
| 2026-05-05 21:47 | 31.55224 | -94.44761 | 28816 ft | 508 kts | 21° |
| 2026-05-05 21:47 | 31.58263 | -94.42627 | 29050 ft | 510 kts | 21° |
| 2026-05-05 21:48 | 31.61314 | -94.40477 | 29255 ft | 512 kts | 21° |
| 2026-05-05 21:48 | 31.64377 | -94.38322 | 29448 ft | 514 kts | 21° |
| 2026-05-05 21:48 | 31.67448 | -94.36166 | 29699 ft | 515 kts | 21° |
| 2026-05-05 21:48 | 31.70522 | -94.34011 | 30005 ft | 514 kts | 21° |
| 2026-05-05 21:49 | 31.73591 | -94.31861 | 30308 ft | 514 kts | 21° |
| 2026-05-05 21:49 | 31.76661 | -94.29713 | 30566 ft | 514 kts | 21° |
| 2026-05-05 21:49 | 31.79735 | -94.27562 | 30807 ft | 514 kts | 21° |
| 2026-05-05 21:49 | 31.82805 | -94.25413 | 31066 ft | 514 kts | 21° |
| 2026-05-05 21:50 | 31.85879 | -94.23259 | 31352 ft | 514 kts | 21° |
| 2026-05-05 21:50 | 31.88948 | -94.21105 | 31633 ft | 514 kts | 21° |
| 2026-05-05 21:50 | 31.92019 | -94.18949 | 31901 ft | 514 kts | 21° |
| 2026-05-05 21:50 | 31.95082 | -94.16795 | 32259 ft | 512 kts | 20° |
| 2026-05-05 21:51 | 31.98133 | -94.14647 | 32594 ft | 511 kts | 20° |
| 2026-05-05 21:51 | 32.01183 | -94.12501 | 32873 ft | 511 kts | 20° |
| 2026-05-05 21:51 | 32.04238 | -94.10350 | 33131 ft | 511 kts | 20° |
| 2026-05-05 21:51 | 32.07291 | -94.08198 | 33422 ft | 511 kts | 20° |
| 2026-05-05 21:52 | 32.13351 | -94.03922 | 33917 ft | 511 kts | 20° |
| 2026-05-05 21:52 | 32.16436 | -94.01741 | 34203 ft | 509 kts | 20° |
| 2026-05-05 21:52 | 32.19423 | -93.99625 | 34523 ft | 506 kts | 20° |
| 2026-05-05 21:53 | 32.22437 | -93.97490 | 34795 ft | 505 kts | 20° |
| 2026-05-05 21:53 | 32.28490 | -93.93206 | 34811 ft | 507 kts | 20° |
| 2026-05-05 21:54 | 32.34523 | -93.88923 | 34813 ft | 504 kts | 19° |
| 2026-05-05 21:54 | 32.40521 | -93.84657 | 34805 ft | 502 kts | 19° |
| 2026-05-05 21:55 | 32.46492 | -93.80406 | 34802 ft | 500 kts | 19° |
| 2026-05-05 21:55 | 32.52443 | -93.76164 | 34817 ft | 499 kts | 19° |
| 2026-05-05 21:56 | 32.58387 | -93.71921 | 34849 ft | 499 kts | 19° |
| 2026-05-05 21:56 | 32.64337 | -93.67667 | 34832 ft | 499 kts | 19° |
| 2026-05-05 21:57 | 32.70274 | -93.63413 | 34819 ft | 499 kts | 19° |
| 2026-05-05 21:57 | 32.75214 | -93.59868 | 34814 ft | 499 kts | 19° |
| 2026-05-05 21:58 | 32.81152 | -93.55602 | 34812 ft | 499 kts | 19° |
| 2026-05-05 21:58 | 32.87089 | -93.51329 | 34821 ft | 499 kts | 19° |
| 2026-05-05 21:59 | 32.93030 | -93.47046 | 34816 ft | 499 kts | 19° |
| 2026-05-05 21:59 | 32.98974 | -93.42755 | 34804 ft | 499 kts | 19° |
| 2026-05-05 22:00 | 33.04948 | -93.38571 | 34791 ft | 497 kts | 18° |
| 2026-05-05 22:00 | 33.10949 | -93.34499 | 34792 ft | 496 kts | 18° |
| 2026-05-05 22:01 | 33.16957 | -93.30415 | 34796 ft | 498 kts | 18° |
| 2026-05-05 22:01 | 33.22971 | -93.26294 | 34788 ft | 499 kts | 18° |
| 2026-05-05 22:02 | 33.28986 | -93.22152 | 34789 ft | 499 kts | 18° |
| 2026-05-05 22:02 | 33.35012 | -93.17994 | 34783 ft | 500 kts | 18° |
| 2026-05-05 22:03 | 33.41035 | -93.13833 | 34797 ft | 500 kts | 18° |
| 2026-05-05 22:03 | 33.47028 | -93.09687 | 34793 ft | 501 kts | 18° |
| 2026-05-05 22:04 | 33.53059 | -93.05508 | 34794 ft | 501 kts | 18° |
| 2026-05-05 22:04 | 33.59089 | -93.01322 | 34798 ft | 501 kts | 18° |
| 2026-05-05 22:05 | 33.65111 | -92.97135 | 34816 ft | 500 kts | 18° |
| 2026-05-05 22:05 | 33.71125 | -92.92947 | 34804 ft | 500 kts | 18° |
| 2026-05-05 22:06 | 33.77138 | -92.88754 | 34799 ft | 499 kts | 18° |
| 2026-05-05 22:06 | 33.83140 | -92.84561 | 34799 ft | 499 kts | 18° |
| 2026-05-05 22:07 | 33.89132 | -92.80368 | 34797 ft | 498 kts | 18° |
| 2026-05-05 22:07 | 33.95121 | -92.76171 | 34807 ft | 499 kts | 18° |
| 2026-05-05 22:08 | 34.01120 | -92.71961 | 34809 ft | 499 kts | 18° |
| 2026-05-05 22:08 | 34.07119 | -92.67743 | 34796 ft | 499 kts | 18° |
| 2026-05-05 22:09 | 34.13118 | -92.63518 | 34803 ft | 499 kts | 18° |
| 2026-05-05 22:09 | 34.19120 | -92.59282 | 34837 ft | 500 kts | 18° |
| 2026-05-05 22:10 | 34.25121 | -92.55041 | 34810 ft | 500 kts | 18° |
| 2026-05-05 22:10 | 34.31123 | -92.50792 | 34806 ft | 500 kts | 18° |
| 2026-05-05 22:11 | 34.37122 | -92.46537 | 34803 ft | 500 kts | 18° |
| 2026-05-05 22:11 | 34.43076 | -92.42308 | 34806 ft | 499 kts | 18° |
| 2026-05-05 22:12 | 34.49063 | -92.38049 | 34800 ft | 499 kts | 18° |
| 2026-05-05 22:12 | 34.55045 | -92.33785 | 34790 ft | 498 kts | 18° |
| 2026-05-05 22:13 | 34.61013 | -92.29523 | 34808 ft | 497 kts | 18° |
| 2026-05-05 22:13 | 34.66965 | -92.25266 | 34809 ft | 496 kts | 18° |
| 2026-05-05 22:14 | 34.72899 | -92.21015 | 34846 ft | 495 kts | 18° |
| 2026-05-05 22:14 | 34.78834 | -92.16770 | 34817 ft | 492 kts | 16° |
| 2026-05-05 22:14 | 34.81873 | -92.14999 | 34807 ft | 476 kts | 7° |
| 2026-05-05 22:15 | 34.84976 | -92.13856 | 34815 ft | 459 kts | 360° |
| 2026-05-05 22:15 | 34.91193 | -92.12110 | 34807 ft | 458 kts | 359° |
| 2026-05-05 22:16 | 34.97410 | -92.10362 | 34849 ft | 459 kts | 359° |
| 2026-05-05 22:16 | 35.03642 | -92.08559 | 34815 ft | 461 kts | 360° |
| 2026-05-05 22:17 | 35.09896 | -92.06718 | 34804 ft | 463 kts | 360° |
| 2026-05-05 22:17 | 35.16165 | -92.04863 | 34806 ft | 464 kts | 0° |
| 2026-05-05 22:18 | 35.22452 | -92.03001 | 34796 ft | 465 kts | 0° |
| 2026-05-05 22:18 | 35.28753 | -92.01135 | 34800 ft | 466 kts | 360° |
| 2026-05-05 22:19 | 35.35063 | -91.99261 | 34792 ft | 467 kts | 360° |
| 2026-05-05 22:19 | 35.41318 | -91.97401 | 34799 ft | 466 kts | 360° |
| 2026-05-05 22:20 | 35.47668 | -91.95512 | 34801 ft | 466 kts | 360° |
| 2026-05-05 22:20 | 35.53934 | -91.93645 | 34803 ft | 467 kts | 360° |
| 2026-05-05 22:21 | 35.60280 | -91.91749 | 34793 ft | 466 kts | 360° |
| 2026-05-05 22:21 | 35.66578 | -91.89866 | 34798 ft | 466 kts | 360° |
| 2026-05-05 22:22 | 35.72683 | -91.88036 | 34786 ft | 465 kts | 360° |
| 2026-05-05 22:22 | 35.78972 | -91.86141 | 34811 ft | 465 kts | 359° |
| 2026-05-05 22:23 | 35.85268 | -91.84255 | 34805 ft | 466 kts | 360° |
| 2026-05-05 22:23 | 35.91564 | -91.82364 | 34788 ft | 466 kts | 359° |
| 2026-05-05 22:24 | 35.97864 | -91.80464 | 34792 ft | 466 kts | 360° |
| 2026-05-05 22:24 | 36.04163 | -91.78560 | 34780 ft | 466 kts | 360° |
| 2026-05-05 22:25 | 36.10466 | -91.76654 | 34781 ft | 466 kts | 359° |
| 2026-05-05 22:25 | 36.16765 | -91.74744 | 34783 ft | 466 kts | 360° |
| 2026-05-05 22:26 | 36.25064 | -91.72226 | 34811 ft | 466 kts | 360° |
| 2026-05-05 22:26 | 36.37680 | -91.68457 | 34784 ft | 467 kts | 359° |
| 2026-05-05 22:27 | 36.50319 | -91.64689 | 34820 ft | 467 kts | 359° |
| 2026-05-05 22:27 | 36.62993 | -91.60889 | 34795 ft | 469 kts | 359° |
| 2026-05-05 22:28 | 36.75684 | -91.57070 | 34832 ft | 470 kts | 359° |
| 2026-05-05 22:28 | 36.88417 | -91.53226 | 34816 ft | 471 kts | 359° |
| 2026-05-05 22:29 | 37.01162 | -91.49364 | 34852 ft | 472 kts | 359° |
| 2026-05-05 22:29 | 37.13935 | -91.45481 | 34845 ft | 473 kts | 359° |
| 2026-05-05 22:30 | 37.26722 | -91.41581 | 34874 ft | 473 kts | 359° |
| 2026-05-05 22:30 | 37.39521 | -91.37665 | 34861 ft | 473 kts | 359° |
| 2026-05-05 22:31 | 37.52313 | -91.33733 | 34891 ft | 474 kts | 360° |
| 2026-05-05 22:31 | 37.65122 | -91.29784 | 34883 ft | 474 kts | 360° |
| 2026-05-05 22:32 | 37.74342 | -91.26933 | 34897 ft | 474 kts | 0° |
| 2026-05-05 22:32 | 37.80738 | -91.24953 | 34905 ft | 473 kts | 0° |
| 2026-05-05 22:33 | 37.97297 | -91.19801 | 34956 ft | 472 kts | 0° |
| 2026-05-05 22:33 | 38.22822 | -91.11827 | 34958 ft | 472 kts | 0° |
| 2026-05-05 22:34 | 38.48298 | -91.03794 | 34915 ft | 471 kts | 0° |
| 2026-05-05 22:34 | 38.72814 | -90.95791 | 34923 ft | 482 kts | 6° |
| 2026-05-05 22:35 | 38.79037 | -90.92396 | 34923 ft | 494 kts | 12° |
| 2026-05-05 22:35 | 38.85263 | -90.88666 | 34921 ft | 493 kts | 11° |
| 2026-05-05 22:36 | 38.91520 | -90.85122 | 34942 ft | 491 kts | 10° |
| 2026-05-05 22:36 | 38.97815 | -90.81696 | 34932 ft | 491 kts | 9° |
| 2026-05-05 22:37 | 39.06137 | -90.77191 | 34923 ft | 492 kts | 9° |
| 2026-05-05 22:37 | 39.52491 | -90.51656 | 34963 ft | 495 kts | 10° |
| 2026-05-05 22:38 | 40.02047 | -90.21976 | 34935 ft | 492 kts | 14° |
| 2026-05-05 22:38 | 40.15078 | -90.09190 | 34982 ft | 549 kts | 40° |
| 2026-05-05 22:38 | 40.17212 | -90.05009 | 34945 ft | 550 kts | 52° |
| 2026-05-05 22:38 | 40.19174 | -90.00812 | 34900 ft | 533 kts | 44° |
| 2026-05-05 22:39 | 40.21469 | -89.97119 | 34937 ft | 516 kts | 34° |
| 2026-05-05 22:39 | 40.26746 | -89.90908 | 34934 ft | 510 kts | 26° |
| 2026-05-05 22:39 | 40.29547 | -89.87946 | 34240 ft | 526 kts | 27° |
| 2026-05-05 22:40 | 40.32369 | -89.84861 | 33566 ft | 529 kts | 29° |
| 2026-05-05 22:40 | 40.35149 | -89.81708 | 32759 ft | 530 kts | 31° |
| 2026-05-05 22:40 | 40.37919 | -89.78526 | 32120 ft | 525 kts | 32° |
| 2026-05-05 22:40 | 40.40589 | -89.75455 | 31617 ft | 511 kts | 32° |
| 2026-05-05 22:41 | 40.43241 | -89.72412 | 30925 ft | 503 kts | 33° |
| 2026-05-05 22:41 | 40.45865 | -89.69414 | 30131 ft | 498 kts | 34° |
| 2026-05-05 22:41 | 40.48474 | -89.66441 | 29255 ft | 494 kts | 35° |
| 2026-05-05 22:41 | 40.51061 | -89.63490 | 28543 ft | 491 kts | 35° |
| 2026-05-05 22:42 | 40.53629 | -89.60554 | 28004 ft | 487 kts | 35° |
| 2026-05-05 22:42 | 40.56177 | -89.57637 | 27454 ft | 484 kts | 36° |
| 2026-05-05 22:42 | 40.58702 | -89.54740 | 26941 ft | 480 kts | 36° |
| 2026-05-05 22:42 | 40.61209 | -89.51860 | 26434 ft | 477 kts | 36° |
| 2026-05-05 22:43 | 40.63696 | -89.49000 | 25933 ft | 473 kts | 36° |
| 2026-05-05 22:43 | 40.66166 | -89.46156 | 25452 ft | 470 kts | 36° |
| 2026-05-05 22:43 | 40.68619 | -89.43330 | 24961 ft | 467 kts | 36° |
| 2026-05-05 22:43 | 40.71056 | -89.40520 | 24480 ft | 464 kts | 36° |
| 2026-05-05 22:44 | 40.73481 | -89.37721 | 23980 ft | 463 kts | 37° |
| 2026-05-05 22:44 | 40.75887 | -89.34911 | 23482 ft | 461 kts | 37° |
| 2026-05-05 22:44 | 40.77465 | -89.33040 | 23118 ft | 460 kts | 38° |
| 2026-05-05 22:44 | 40.80620 | -89.29268 | 22432 ft | 455 kts | 38° |
| 2026-05-05 22:45 | 40.82954 | -89.26468 | 21945 ft | 451 kts | 38° |
| 2026-05-05 22:45 | 40.85264 | -89.23699 | 21480 ft | 447 kts | 38° |
| 2026-05-05 22:45 | 40.87553 | -89.20956 | 21023 ft | 442 kts | 38° |
| 2026-05-05 22:45 | 40.89821 | -89.18240 | 20570 ft | 438 kts | 38° |
| 2026-05-05 22:46 | 40.91312 | -89.16455 | 20303 ft | 436 kts | 38° |
| 2026-05-05 22:46 | 40.93550 | -89.13775 | 19847 ft | 432 kts | 38° |
| 2026-05-05 22:46 | 40.95771 | -89.11113 | 19403 ft | 429 kts | 38° |
| 2026-05-05 22:46 | 40.97975 | -89.08471 | 18958 ft | 426 kts | 38° |
| 2026-05-05 22:47 | 41.00164 | -89.05841 | 18508 ft | 423 kts | 39° |
| 2026-05-05 22:47 | 41.02338 | -89.03228 | 18047 ft | 421 kts | 39° |
| 2026-05-05 22:47 | 41.04494 | -89.00632 | 17590 ft | 416 kts | 39° |
| 2026-05-05 22:47 | 41.06616 | -88.98074 | 17234 ft | 409 kts | 39° |
| 2026-05-05 22:48 | 41.08711 | -88.95548 | 16801 ft | 405 kts | 38° |
| 2026-05-05 22:48 | 41.10786 | -88.93043 | 16387 ft | 401 kts | 38° |
| 2026-05-05 22:48 | 41.12835 | -88.90569 | 16014 ft | 396 kts | 38° |
| 2026-05-05 22:48 | 41.14859 | -88.88122 | 15585 ft | 393 kts | 38° |
| 2026-05-05 22:49 | 41.16869 | -88.85691 | 15172 ft | 389 kts | 38° |
| 2026-05-05 22:49 | 41.18859 | -88.83282 | 14767 ft | 385 kts | 38° |
| 2026-05-05 22:49 | 41.26289 | -88.74267 | 13239 ft | 371 kts | 38° |
| 2026-05-05 22:49 | 41.33020 | -88.66083 | 11788 ft | 359 kts | 38° |
| 2026-05-05 22:50 | 41.34873 | -88.63826 | 11436 ft | 355 kts | 38° |
| 2026-05-05 22:50 | 41.36684 | -88.61617 | 11073 ft | 352 kts | 39° |
| 2026-05-05 22:50 | 41.38480 | -88.59450 | 10913 ft | 344 kts | 38° |
| 2026-05-05 22:50 | 41.40259 | -88.57337 | 10775 ft | 343 kts | 38° |
| 2026-05-05 22:51 | 41.42056 | -88.55216 | 10657 ft | 348 kts | 38° |
| 2026-05-05 22:51 | 41.43870 | -88.53072 | 10499 ft | 349 kts | 38° |
| 2026-05-05 22:51 | 41.45657 | -88.50951 | 10342 ft | 337 kts | 38° |
| 2026-05-05 22:51 | 41.47365 | -88.48916 | 10200 ft | 322 kts | 38° |
| 2026-05-05 22:52 | 41.49010 | -88.46957 | 10081 ft | 312 kts | 38° |
| 2026-05-05 22:52 | 41.50604 | -88.45058 | 9962 ft | 304 kts | 38° |
| 2026-05-05 22:52 | 41.52141 | -88.43226 | 9836 ft | 297 kts | 38° |
| 2026-05-05 22:52 | 41.53671 | -88.41403 | 9728 ft | 294 kts | 38° |
| 2026-05-05 22:53 | 41.55200 | -88.39580 | 9647 ft | 296 kts | 38° |
| 2026-05-05 22:53 | 41.56754 | -88.37728 | 9517 ft | 303 kts | 38° |
| 2026-05-05 22:53 | 41.58334 | -88.35841 | 9396 ft | 306 kts | 38° |
| 2026-05-05 22:53 | 41.59921 | -88.33942 | 9266 ft | 305 kts | 38° |
| 2026-05-05 22:54 | 41.61498 | -88.32053 | 9136 ft | 304 kts | 38° |
| 2026-05-05 22:54 | 41.63071 | -88.30178 | 9006 ft | 302 kts | 38° |
| 2026-05-05 22:54 | 41.64637 | -88.28316 | 8883 ft | 300 kts | 38° |
| 2026-05-05 22:54 | 41.66190 | -88.26470 | 8766 ft | 298 kts | 38° |
| 2026-05-05 22:55 | 41.67732 | -88.24636 | 8647 ft | 296 kts | 38° |
| 2026-05-05 22:55 | 41.69262 | -88.22814 | 8537 ft | 294 kts | 38° |
| 2026-05-05 22:55 | 41.70782 | -88.21003 | 8415 ft | 292 kts | 38° |
| 2026-05-05 22:55 | 41.72290 | -88.19204 | 8288 ft | 290 kts | 38° |
| 2026-05-05 22:56 | 41.73789 | -88.17415 | 8171 ft | 288 kts | 38° |
| 2026-05-05 22:56 | 41.75275 | -88.15640 | 8062 ft | 285 kts | 38° |
| 2026-05-05 22:56 | 41.76753 | -88.13875 | 7950 ft | 284 kts | 38° |
| 2026-05-05 22:56 | 41.78223 | -88.12117 | 7852 ft | 283 kts | 38° |
| 2026-05-05 22:57 | 41.79683 | -88.10370 | 7723 ft | 280 kts | 38° |
| 2026-05-05 22:57 | 41.81115 | -88.08631 | 7622 ft | 276 kts | 40° |
| 2026-05-05 22:57 | 41.82478 | -88.06830 | 7494 ft | 275 kts | 41° |
| 2026-05-05 22:57 | 41.83832 | -88.05013 | 7399 ft | 277 kts | 41° |
| 2026-05-05 22:58 | 41.85206 | -88.03176 | 7294 ft | 279 kts | 41° |
| 2026-05-05 22:58 | 41.86582 | -88.01343 | 7179 ft | 278 kts | 41° |
| 2026-05-05 22:58 | 41.87881 | -87.99440 | 7042 ft | 279 kts | 55° |
| 2026-05-05 22:58 | 41.88474 | -87.96982 | 6946 ft | 279 kts | 84° |
| 2026-05-05 22:59 | 41.88514 | -87.94388 | 6849 ft | 278 kts | 90° |
| 2026-05-05 22:59 | 41.88485 | -87.91803 | 6734 ft | 277 kts | 90° |
| 2026-05-05 22:59 | 41.88461 | -87.89223 | 6622 ft | 276 kts | 89° |
| 2026-05-05 22:59 | 41.88448 | -87.86695 | 6469 ft | 273 kts | 89° |
| 2026-05-05 23:00 | 41.88435 | -87.81647 | 5765 ft | 270 kts | 88° |
| 2026-05-05 23:00 | 41.88431 | -87.79128 | 5389 ft | 270 kts | 88° |
| 2026-05-05 23:00 | 41.88429 | -87.76631 | 5092 ft | 266 kts | 88° |
| 2026-05-05 23:01 | 41.88426 | -87.74151 | 4729 ft | 266 kts | 88° |
| 2026-05-05 23:01 | 41.88423 | -87.71673 | 4372 ft | 264 kts | 88° |
| 2026-05-05 23:01 | 41.88419 | -87.69286 | 4299 ft | 248 kts | 89° |
| 2026-05-05 23:01 | 41.88406 | -87.67013 | 4046 ft | 242 kts | 89° |
| 2026-05-05 23:02 | 41.88380 | -87.64755 | 4008 ft | 239 kts | 89° |
| 2026-05-05 23:02 | 41.88637 | -87.62620 | 3984 ft | 227 kts | 61° |
| 2026-05-05 23:02 | 41.89645 | -87.61077 | 3997 ft | 219 kts | 27° |
| 2026-05-05 23:02 | 41.91063 | -87.60556 | 3821 ft | 211 kts | 353° |
| 2026-05-05 23:03 | 41.92404 | -87.61227 | 3668 ft | 207 kts | 319° |
| 2026-05-05 23:03 | 41.93359 | -87.62680 | 3647 ft | 211 kts | 300° |
| 2026-05-05 23:03 | 41.94183 | -87.64301 | 3602 ft | 210 kts | 315° |
| 2026-05-05 23:03 | 41.95253 | -87.65642 | 3608 ft | 210 kts | 315° |
| 2026-05-05 23:04 | 41.96297 | -87.66990 | 3450 ft | 206 kts | 315° |
| 2026-05-05 23:04 | 41.97289 | -87.68276 | 3350 ft | 190 kts | 315° |
| 2026-05-05 23:04 | 41.98208 | -87.69471 | 3188 ft | 176 kts | 312° |
| 2026-05-05 23:04 | 41.98726 | -87.70854 | 3014 ft | 166 kts | 273° |
| 2026-05-05 23:05 | 41.98761 | -87.72359 | 2992 ft | 157 kts | 279° |
| 2026-05-05 23:05 | 41.98861 | -87.73868 | 2879 ft | 168 kts | 272° |
| 2026-05-05 23:05 | 41.98854 | -87.75373 | 2677 ft | 156 kts | 272° |
| 2026-05-05 23:05 | 41.98845 | -87.76782 | 2468 ft | 146 kts | 272° |
| 2026-05-05 23:06 | 41.98842 | -87.78144 | 2297 ft | 147 kts | 272° |
| 2026-05-05 23:06 | 41.98840 | -87.79498 | 2096 ft | 142 kts | 272° |
| 2026-05-05 23:06 | 41.98838 | -87.80816 | 1868 ft | 141 kts | 271° |
| 2026-05-05 23:06 | 41.98831 | -87.82149 | 1645 ft | 144 kts | 271° |
| 2026-05-05 23:07 | 41.98789 | -87.83508 | 1493 ft | 146 kts | 271° |
| 2026-05-05 23:07 | 41.98790 | -87.84865 | 1292 ft | 145 kts | 275° |
| 2026-05-05 23:07 | 41.98829 | -87.86215 | 1085 ft | 145 kts | 273° |
| 2026-05-05 23:07 | 41.98859 | -87.87542 | 980 ft | 141 kts | 271° |
| 2026-05-05 23:08 | 41.98843 | -87.88846 | 805 ft | 140 kts | 271° |
| 2026-05-05 23:08 | 41.98831 | -87.90101 | 670 ft | 124 kts | 273° |
| 2026-05-05 23:08 | 41.98835 | -87.91029 | 668 ft | 68 kts | 272° |
| 2026-05-05 23:08 | 41.98832 | -87.91478 | 666 ft | 41 kts | 270° |
| 2026-05-05 23:09 | 41.98788 | -87.91815 | 667 ft | 34 kts | 245° |
| 2026-05-05 23:09 | 41.98687 | -87.92076 | 666 ft | 30 kts | 253° |
| 2026-05-05 23:09 | 41.98672 | -87.92344 | 667 ft | 28 kts | 248° |
| 2026-05-05 23:09 | 41.98500 | -87.92406 | 668 ft | 26 kts | 179° |
| 2026-05-05 23:10 | 41.98322 | -87.92401 | 667 ft | 25 kts | 176° |
| 2026-05-05 23:10 | 41.98195 | -87.92306 | 669 ft | 23 kts | 98° |
| 2026-05-05 23:10 | 41.98179 | -87.92096 | 668 ft | 22 kts | 100° |
| 2026-05-05 23:10 | 41.98168 | -87.91891 | 669 ft | 22 kts | 90° |
| 2026-05-05 23:11 | 41.98169 | -87.91691 | 668 ft | 21 kts | 90° |
| 2026-05-05 23:11 | 41.98167 | -87.91496 | 669 ft | 20 kts | 90° |
| 2026-05-05 23:11 | 41.98151 | -87.91311 | 669 ft | 20 kts | 115° |
| 2026-05-05 23:11 | 41.98081 | -87.91182 | 669 ft | 12 kts | 153° |
| 2026-05-05 23:12 | 41.98027 | -87.91106 | 669 ft | 9 kts | 126° |
| 2026-05-05 23:12 | 41.98013 | -87.91068 | 669 ft | 4 kts | 109° |
| 2026-05-05 23:12 | 41.98010 | -87.91057 | 669 ft | 0 kts | 109° |